FLI432 EKVG-ENBR
Flight info
| Callsign | FLI432 |
|---|---|
| Flight time | N/A |
| Altitude | 39000 |
| Route | ODEVA DCT VALDI/N0424F390 DCT ETNOR |
| Aircraft | A20N/M-SDE2E3FGHIRWXY/LB1 |
Departure
| Time | 2026-05-07 22:38 |
|---|---|
| Airport | Vágar Airport (EKVG) |
Arrival
| Time | N/A |
|---|---|
| Airport | Bergen Airport, Flesland (ENBR) |
| Time | Latitude | Longitude | Altitude | Speed | Heading |
|---|---|---|---|---|---|
| 2026-05-07 22:24 | 62.06692 | -7.27939 | 279 ft | 0 kts | 29° |
| 2026-05-07 22:31 | 62.06691 | -7.27940 | 278 ft | 1 kts | 29° |
| 2026-05-07 22:32 | 62.06678 | -7.27954 | 278 ft | 3 kts | 13° |
| 2026-05-07 22:32 | 62.06660 | -7.27956 | 278 ft | 3 kts | 336° |
| 2026-05-07 22:32 | 62.06644 | -7.27933 | 278 ft | 3 kts | 309° |
| 2026-05-07 22:32 | 62.06633 | -7.27899 | 284 ft | 2 kts | 298° |
| 2026-05-07 22:33 | 62.06630 | -7.27887 | 278 ft | 0 kts | 297° |
| 2026-05-07 22:34 | 62.06640 | -7.27934 | 281 ft | 10 kts | 293° |
| 2026-05-07 22:35 | 62.06641 | -7.28082 | 282 ft | 10 kts | 214° |
| 2026-05-07 22:35 | 62.06551 | -7.28106 | 278 ft | 16 kts | 197° |
| 2026-05-07 22:35 | 62.06484 | -7.28197 | 280 ft | 9 kts | 256° |
| 2026-05-07 22:35 | 62.06516 | -7.28350 | 280 ft | 15 kts | 297° |
| 2026-05-07 22:36 | 62.06575 | -7.28588 | 276 ft | 22 kts | 298° |
| 2026-05-07 22:36 | 62.06649 | -7.28886 | 272 ft | 20 kts | 297° |
| 2026-05-07 22:36 | 62.06699 | -7.29090 | 269 ft | 10 kts | 298° |
| 2026-05-07 22:36 | 62.06710 | -7.29209 | 269 ft | 4 kts | 294° |
| 2026-05-07 22:37 | 62.06731 | -7.29199 | 269 ft | 3 kts | 66° |
| 2026-05-07 22:37 | 62.06717 | -7.29164 | 269 ft | 5 kts | 140° |
| 2026-05-07 22:37 | 62.06711 | -7.29141 | 269 ft | 0 kts | 118° |
| 2026-05-07 22:37 | 62.06687 | -7.29044 | 270 ft | 36 kts | 117° |
| 2026-05-07 22:38 | 62.06424 | -7.27986 | 287 ft | 120 kts | 118° |
| 2026-05-07 22:38 | 62.05994 | -7.26286 | 960 ft | 130 kts | 116° |
| 2026-05-07 22:38 | 62.05564 | -7.24527 | 1891 ft | 137 kts | 117° |
| 2026-05-07 22:38 | 62.05100 | -7.22625 | 2623 ft | 153 kts | 118° |
| 2026-05-07 22:39 | 62.04568 | -7.20477 | 3276 ft | 177 kts | 120° |
| 2026-05-07 22:39 | 62.03955 | -7.17995 | 4044 ft | 201 kts | 116° |
| 2026-05-07 22:39 | 62.03569 | -7.14930 | 4938 ft | 227 kts | 105° |
| 2026-05-07 22:39 | 62.03267 | -7.11451 | 5842 ft | 250 kts | 104° |
| 2026-05-07 22:40 | 62.02968 | -7.07683 | 6870 ft | 262 kts | 103° |
| 2026-05-07 22:40 | 62.02664 | -7.03877 | 8120 ft | 266 kts | 104° |
| 2026-05-07 22:40 | 62.02333 | -6.99977 | 9405 ft | 270 kts | 105° |
| 2026-05-07 22:40 | 62.01983 | -6.95969 | 10414 ft | 284 kts | 105° |
| 2026-05-07 22:41 | 62.01598 | -6.91665 | 11019 ft | 309 kts | 105° |
| 2026-05-07 22:41 | 62.01183 | -6.87013 | 11628 ft | 328 kts | 104° |
| 2026-05-07 22:41 | 62.00760 | -6.82209 | 12715 ft | 333 kts | 104° |
| 2026-05-07 22:41 | 62.00330 | -6.77324 | 13758 ft | 339 kts | 104° |
| 2026-05-07 22:42 | 61.99891 | -6.72351 | 14725 ft | 344 kts | 105° |
| 2026-05-07 22:42 | 61.99440 | -6.67305 | 15674 ft | 350 kts | 105° |
| 2026-05-07 22:42 | 61.98978 | -6.62175 | 16631 ft | 356 kts | 105° |
| 2026-05-07 22:42 | 61.98507 | -6.56970 | 17570 ft | 361 kts | 105° |
| 2026-05-07 22:43 | 61.98025 | -6.51684 | 18409 ft | 367 kts | 106° |
| 2026-05-07 22:43 | 61.97536 | -6.46319 | 19166 ft | 372 kts | 107° |
| 2026-05-07 22:43 | 61.97041 | -6.40860 | 19898 ft | 379 kts | 108° |
| 2026-05-07 22:43 | 61.96532 | -6.35318 | 20678 ft | 384 kts | 109° |
| 2026-05-07 22:44 | 61.96010 | -6.29700 | 21460 ft | 390 kts | 110° |
| 2026-05-07 22:44 | 61.95479 | -6.24020 | 22220 ft | 395 kts | 110° |
| 2026-05-07 22:44 | 61.94938 | -6.18259 | 22968 ft | 401 kts | 110° |